EmailTwitter


Surface observations / Quebec / CYUL (71627)

Regions: Quebec | Canada | USA | Europe | France | UK | Elsewhere
Station
Display
Info & Location for CYUL (71627) | Help decoding METAR

Weather Conditions observed on 2018/02/18 at 03:00 UTC at MONTREAL INTL A, QB (CYUL)

Sky conditions: overcast.

Temperature: -4.0 Celsius.

Dewpoint: -9.0 Celsius.

Relative Humidity: 68%

Winds: Calm at 0 km/h or 0 knots.

Mean Sea level Pressure: 101.60 kilopascals.

Altimeter Setting (QNH): 101.56 kilopascals or 29.99 inches of mercury.

Horizontal visibility: 15.00 statute miles or 24.00 kilometers.

Height of the Ceiling: 2896 metres ( 9500 feet ).

Coded METAR:

CYUL 180300Z 00000KT 15SM FEW070 OVC095 M04/M09 A2999 RMK AC1AS7 SLP160=